SKU1624 SCTE-SCEL
Flight info
| Callsign | SKU1624 |
|---|---|
| Flight time | 1h 29m |
| Altitude | 36000 |
| Route | ANROS6A ANROS UQ802 EROLO EROLO8A |
| Aircraft | A21N/M-SDFGIRWYZ/EB1 |
Departure
| Time | 2026-05-05 20:49 |
|---|---|
| Airport | El Tepual International Airport (SCTE) |
Arrival
| Time | 2026-05-05 22:18 |
|---|---|
| Airport | Comodoro Arturo Merino Benítez International Airport (SCEL) |
| Time | Latitude | Longitude | Altitude | Speed | Heading |
|---|---|---|---|---|---|
| 2026-05-05 20:18 | -41.43257 | -73.09741 | 307 ft | 0 kts | 271° |
| 2026-05-05 20:34 | -41.43258 | -73.09721 | 307 ft | 4 kts | 272° |
| 2026-05-05 20:35 | -41.43258 | -73.09686 | 308 ft | 4 kts | 272° |
| 2026-05-05 20:35 | -41.43259 | -73.09650 | 308 ft | 4 kts | 272° |
| 2026-05-05 20:35 | -41.43260 | -73.09618 | 308 ft | 4 kts | 268° |
| 2026-05-05 20:35 | -41.43254 | -73.09592 | 308 ft | 4 kts | 206° |
| 2026-05-05 20:36 | -41.43230 | -73.09590 | 307 ft | 4 kts | 173° |
| 2026-05-05 20:36 | -41.43214 | -73.09591 | 307 ft | 0 kts | 181° |
| 2026-05-05 20:40 | -41.43222 | -73.09592 | 307 ft | 2 kts | 182° |
| 2026-05-05 20:40 | -41.43250 | -73.09593 | 310 ft | 6 kts | 181° |
| 2026-05-05 20:40 | -41.43293 | -73.09595 | 307 ft | 7 kts | 182° |
| 2026-05-05 20:41 | -41.43343 | -73.09597 | 310 ft | 8 kts | 182° |
| 2026-05-05 20:41 | -41.43398 | -73.09600 | 308 ft | 9 kts | 182° |
| 2026-05-05 20:41 | -41.43461 | -73.09601 | 309 ft | 9 kts | 181° |
| 2026-05-05 20:41 | -41.43530 | -73.09604 | 307 ft | 10 kts | 182° |
| 2026-05-05 20:42 | -41.43605 | -73.09607 | 309 ft | 11 kts | 181° |
| 2026-05-05 20:42 | -41.43686 | -73.09611 | 307 ft | 12 kts | 182° |
| 2026-05-05 20:42 | -41.43773 | -73.09614 | 306 ft | 13 kts | 181° |
| 2026-05-05 20:42 | -41.43863 | -73.09617 | 307 ft | 12 kts | 181° |
| 2026-05-05 20:43 | -41.43944 | -73.09620 | 305 ft | 10 kts | 181° |
| 2026-05-05 20:43 | -41.44014 | -73.09622 | 308 ft | 10 kts | 181° |
| 2026-05-05 20:43 | -41.44090 | -73.09625 | 305 ft | 11 kts | 181° |
| 2026-05-05 20:43 | -41.44172 | -73.09628 | 305 ft | 13 kts | 182° |
| 2026-05-05 20:44 | -41.44264 | -73.09632 | 305 ft | 14 kts | 181° |
| 2026-05-05 20:44 | -41.44365 | -73.09635 | 307 ft | 13 kts | 181° |
| 2026-05-05 20:44 | -41.44460 | -73.09638 | 306 ft | 14 kts | 181° |
| 2026-05-05 20:44 | -41.44566 | -73.09641 | 307 ft | 16 kts | 181° |
| 2026-05-05 20:45 | -41.44811 | -73.09649 | 309 ft | 17 kts | 181° |
| 2026-05-05 20:45 | -41.44896 | -73.09652 | 307 ft | 10 kts | 181° |
| 2026-05-05 20:45 | -41.44975 | -73.09655 | 307 ft | 12 kts | 181° |
| 2026-05-05 20:46 | -41.45055 | -73.09641 | 310 ft | 12 kts | 142° |
| 2026-05-05 20:46 | -41.45068 | -73.09560 | 313 ft | 5 kts | 91° |
| 2026-05-05 20:46 | -41.45069 | -73.09503 | 316 ft | 8 kts | 91° |
| 2026-05-05 20:46 | -41.45070 | -73.09462 | 318 ft | 3 kts | 91° |
| 2026-05-05 20:47 | -41.45054 | -73.09437 | 317 ft | 5 kts | 11° |
| 2026-05-05 20:47 | -41.45040 | -73.09436 | 316 ft | 0 kts | 2° |
| 2026-05-05 20:48 | -41.44897 | -73.09431 | 311 ft | 55 kts | 1° |
| 2026-05-05 20:48 | -41.44266 | -73.09409 | 293 ft | 122 kts | 1° |
| 2026-05-05 20:48 | -41.43250 | -73.09382 | 365 ft | 160 kts | 1° |
| 2026-05-05 20:48 | -41.42130 | -73.09358 | 809 ft | 165 kts | 2° |
| 2026-05-05 20:49 | -41.40905 | -73.09311 | 1156 ft | 186 kts | 2° |
| 2026-05-05 20:49 | -41.39555 | -73.09262 | 1672 ft | 202 kts | 2° |
| 2026-05-05 20:49 | -41.38085 | -73.09210 | 2236 ft | 219 kts | 2° |
| 2026-05-05 20:49 | -41.36471 | -73.09155 | 2689 ft | 245 kts | 2° |
| 2026-05-05 20:50 | -41.34702 | -73.09091 | 3449 ft | 260 kts | 3° |
| 2026-05-05 20:50 | -41.32907 | -73.09026 | 4574 ft | 255 kts | 1° |
| 2026-05-05 20:50 | -41.31142 | -73.08965 | 5657 ft | 253 kts | 359° |
| 2026-05-05 20:50 | -41.29369 | -73.08902 | 6573 ft | 256 kts | 358° |
| 2026-05-05 20:51 | -41.27571 | -73.08840 | 7430 ft | 260 kts | 357° |
| 2026-05-05 20:51 | -41.25743 | -73.08726 | 8304 ft | 266 kts | 2° |
| 2026-05-05 20:51 | -41.23890 | -73.08378 | 9217 ft | 271 kts | 4° |
| 2026-05-05 20:51 | -41.22037 | -73.07979 | 10065 ft | 275 kts | 5° |
| 2026-05-05 20:52 | -41.20086 | -73.07550 | 10509 ft | 294 kts | 5° |
| 2026-05-05 20:52 | -41.17994 | -73.07097 | 10895 ft | 313 kts | 5° |
| 2026-05-05 20:52 | -41.15816 | -73.06624 | 11543 ft | 321 kts | 5° |
| 2026-05-05 20:52 | -41.13596 | -73.06138 | 12311 ft | 325 kts | 5° |
| 2026-05-05 20:53 | -41.11355 | -73.05645 | 13119 ft | 329 kts | 5° |
| 2026-05-05 20:53 | -41.09072 | -73.05154 | 13675 ft | 338 kts | 9° |
| 2026-05-05 20:53 | -41.06740 | -73.04634 | 14420 ft | 340 kts | 5° |
| 2026-05-05 20:53 | -41.04407 | -73.04129 | 15232 ft | 340 kts | 4° |
| 2026-05-05 20:54 | -41.02047 | -73.03632 | 15973 ft | 343 kts | 4° |
| 2026-05-05 20:54 | -40.99709 | -73.03137 | 16664 ft | 346 kts | 4° |
| 2026-05-05 20:54 | -40.97327 | -73.02624 | 17344 ft | 349 kts | 3° |
| 2026-05-05 20:54 | -40.94919 | -73.02102 | 17997 ft | 352 kts | 3° |
| 2026-05-05 20:55 | -40.92485 | -73.01578 | 18650 ft | 356 kts | 3° |
| 2026-05-05 20:55 | -40.90018 | -73.01050 | 19281 ft | 359 kts | 2° |
| 2026-05-05 20:55 | -40.87555 | -73.00526 | 19918 ft | 361 kts | 2° |
| 2026-05-05 20:55 | -40.85061 | -72.99994 | 20529 ft | 363 kts | 2° |
| 2026-05-05 20:56 | -40.82552 | -72.99460 | 21124 ft | 366 kts | 2° |
| 2026-05-05 20:56 | -40.80068 | -72.98933 | 21770 ft | 367 kts | 2° |
| 2026-05-05 20:56 | -40.77545 | -72.98398 | 22413 ft | 367 kts | 2° |
| 2026-05-05 20:56 | -40.75014 | -72.97860 | 23005 ft | 369 kts | 2° |
| 2026-05-05 20:57 | -40.72461 | -72.97318 | 23543 ft | 372 kts | 2° |
| 2026-05-05 20:57 | -40.69898 | -72.96765 | 24046 ft | 373 kts | 1° |
| 2026-05-05 20:57 | -40.67339 | -72.96200 | 24581 ft | 373 kts | 1° |
| 2026-05-05 20:57 | -40.64783 | -72.95643 | 25071 ft | 372 kts | 1° |
| 2026-05-05 20:58 | -40.62224 | -72.95101 | 25527 ft | 373 kts | 1° |
| 2026-05-05 20:58 | -40.59647 | -72.94562 | 25918 ft | 375 kts | 1° |
| 2026-05-05 20:58 | -40.57092 | -72.94034 | 26336 ft | 377 kts | 1° |
| 2026-05-05 20:58 | -40.54493 | -72.93492 | 26786 ft | 379 kts | 1° |
| 2026-05-05 20:59 | -40.51880 | -72.92946 | 27247 ft | 381 kts | 1° |
| 2026-05-05 20:59 | -40.49255 | -72.92396 | 27667 ft | 382 kts | 2° |
| 2026-05-05 20:59 | -40.46622 | -72.91835 | 28096 ft | 383 kts | 2° |
| 2026-05-05 20:59 | -40.43983 | -72.91275 | 28513 ft | 384 kts | 2° |
| 2026-05-05 21:00 | -40.41334 | -72.90719 | 28905 ft | 385 kts | 2° |
| 2026-05-05 21:00 | -40.39579 | -72.90353 | 29160 ft | 386 kts | 2° |
| 2026-05-05 21:00 | -40.36921 | -72.89796 | 29540 ft | 387 kts | 2° |
| 2026-05-05 21:00 | -40.33379 | -72.89081 | 29996 ft | 389 kts | 1° |
| 2026-05-05 21:01 | -40.30700 | -72.88634 | 30314 ft | 389 kts | 0° |
| 2026-05-05 21:01 | -40.28003 | -72.88199 | 30629 ft | 391 kts | 0° |
| 2026-05-05 21:01 | -40.25294 | -72.87758 | 30902 ft | 393 kts | 0° |
| 2026-05-05 21:01 | -40.23454 | -72.87457 | 31103 ft | 395 kts | 0° |
| 2026-05-05 21:02 | -40.20714 | -72.87011 | 31402 ft | 397 kts | 0° |
| 2026-05-05 21:02 | -40.18015 | -72.86570 | 31745 ft | 396 kts | 0° |
| 2026-05-05 21:02 | -40.15282 | -72.86119 | 32108 ft | 396 kts | 0° |
| 2026-05-05 21:02 | -40.12550 | -72.85674 | 32484 ft | 394 kts | 0° |
| 2026-05-05 21:03 | -40.09835 | -72.85232 | 32815 ft | 393 kts | 0° |
| 2026-05-05 21:03 | -40.07115 | -72.84794 | 33173 ft | 392 kts | 360° |
| 2026-05-05 21:03 | -40.04408 | -72.84359 | 33543 ft | 391 kts | 0° |
| 2026-05-05 21:03 | -40.01713 | -72.83917 | 33919 ft | 388 kts | 0° |
| 2026-05-05 21:04 | -39.99032 | -72.83471 | 34176 ft | 389 kts | 0° |
| 2026-05-05 21:04 | -39.96341 | -72.83028 | 34353 ft | 390 kts | 0° |
| 2026-05-05 21:04 | -39.93645 | -72.82589 | 34522 ft | 391 kts | 360° |
| 2026-05-05 21:04 | -39.90932 | -72.82153 | 34709 ft | 392 kts | 360° |
| 2026-05-05 21:05 | -39.88255 | -72.81716 | 34927 ft | 392 kts | 360° |
| 2026-05-05 21:05 | -39.85546 | -72.81260 | 35078 ft | 393 kts | 360° |
| 2026-05-05 21:05 | -39.82831 | -72.80810 | 35217 ft | 395 kts | 359° |
| 2026-05-05 21:05 | -39.80093 | -72.80362 | 35347 ft | 397 kts | 359° |
| 2026-05-05 21:06 | -39.77344 | -72.79919 | 35497 ft | 398 kts | 359° |
| 2026-05-05 21:06 | -39.74594 | -72.79479 | 35651 ft | 399 kts | 359° |
| 2026-05-05 21:06 | -39.71838 | -72.79040 | 35787 ft | 399 kts | 359° |
| 2026-05-05 21:06 | -39.69068 | -72.78575 | 35809 ft | 402 kts | 360° |
| 2026-05-05 21:07 | -39.63531 | -72.77567 | 35786 ft | 401 kts | 360° |
| 2026-05-05 21:07 | -39.57960 | -72.76569 | 35760 ft | 408 kts | 360° |
| 2026-05-05 21:08 | -39.52342 | -72.75550 | 35776 ft | 408 kts | 360° |
| 2026-05-05 21:08 | -39.46717 | -72.74515 | 35776 ft | 408 kts | 0° |
| 2026-05-05 21:09 | -39.41093 | -72.73491 | 35783 ft | 408 kts | 360° |
| 2026-05-05 21:09 | -39.35478 | -72.72473 | 35771 ft | 413 kts | 359° |
| 2026-05-05 21:10 | -39.29773 | -72.71436 | 35784 ft | 413 kts | 359° |
| 2026-05-05 21:10 | -39.24075 | -72.70409 | 35783 ft | 413 kts | 359° |
| 2026-05-05 21:11 | -39.18397 | -72.69385 | 35775 ft | 415 kts | 359° |
| 2026-05-05 21:11 | -39.12734 | -72.68369 | 35780 ft | 412 kts | 359° |
| 2026-05-05 21:12 | -39.07051 | -72.67346 | 35796 ft | 413 kts | 359° |
| 2026-05-05 21:12 | -39.01364 | -72.66316 | 35796 ft | 413 kts | 359° |
| 2026-05-05 21:13 | -38.95675 | -72.65294 | 35803 ft | 412 kts | 359° |
| 2026-05-05 21:13 | -38.89987 | -72.64200 | 35791 ft | 416 kts | 2° |
| 2026-05-05 21:14 | -38.84318 | -72.62599 | 35799 ft | 417 kts | 4° |
| 2026-05-05 21:14 | -38.78657 | -72.60966 | 35807 ft | 417 kts | 3° |
| 2026-05-05 21:15 | -38.72987 | -72.59348 | 35794 ft | 416 kts | 3° |
| 2026-05-05 21:15 | -38.67323 | -72.57726 | 35798 ft | 416 kts | 4° |
| 2026-05-05 21:16 | -38.61702 | -72.56125 | 35813 ft | 417 kts | 3° |
| 2026-05-05 21:16 | -38.56043 | -72.54525 | 35817 ft | 416 kts | 3° |
| 2026-05-05 21:17 | -38.50369 | -72.52909 | 35823 ft | 417 kts | 3° |
| 2026-05-05 21:17 | -38.44707 | -72.51313 | 35815 ft | 417 kts | 3° |
| 2026-05-05 21:18 | -38.39038 | -72.49715 | 35834 ft | 416 kts | 4° |
| 2026-05-05 21:18 | -38.33413 | -72.48134 | 35843 ft | 416 kts | 4° |
| 2026-05-05 21:19 | -38.27736 | -72.46535 | 35831 ft | 417 kts | 3° |
| 2026-05-05 21:19 | -38.22063 | -72.44944 | 35828 ft | 416 kts | 2° |
| 2026-05-05 21:20 | -38.16414 | -72.43355 | 35845 ft | 415 kts | 2° |
| 2026-05-05 21:20 | -38.10761 | -72.41776 | 35844 ft | 416 kts | 3° |
| 2026-05-05 21:21 | -38.05118 | -72.40205 | 35854 ft | 418 kts | 3° |
| 2026-05-05 21:21 | -37.99464 | -72.38614 | 35842 ft | 416 kts | 2° |
| 2026-05-05 21:22 | -37.93808 | -72.37031 | 35877 ft | 416 kts | 2° |
| 2026-05-05 21:22 | -37.88162 | -72.35467 | 35867 ft | 415 kts | 2° |
| 2026-05-05 21:23 | -37.82517 | -72.33902 | 35879 ft | 415 kts | 2° |
| 2026-05-05 21:23 | -37.76882 | -72.32337 | 35863 ft | 415 kts | 2° |
| 2026-05-05 21:24 | -37.71241 | -72.30771 | 35871 ft | 415 kts | 2° |
| 2026-05-05 21:24 | -37.65591 | -72.29210 | 35873 ft | 416 kts | 2° |
| 2026-05-05 21:25 | -37.59983 | -72.27532 | 35874 ft | 417 kts | 3° |
| 2026-05-05 21:25 | -37.54341 | -72.25803 | 35880 ft | 417 kts | 3° |
| 2026-05-05 21:26 | -37.48664 | -72.24068 | 35876 ft | 420 kts | 2° |
| 2026-05-05 21:26 | -37.42988 | -72.22340 | 35882 ft | 420 kts | 2° |
| 2026-05-05 21:27 | -37.37304 | -72.20619 | 35886 ft | 420 kts | 2° |
| 2026-05-05 21:27 | -37.33428 | -72.19451 | 35883 ft | 420 kts | 2° |
| 2026-05-05 21:29 | -37.30461 | -72.18552 | 35883 ft | 419 kts | 2° |
| 2026-05-05 21:29 | -37.24738 | -72.16822 | 35896 ft | 427 kts | 14° |
| 2026-05-05 21:30 | -37.21854 | -72.15938 | 35973 ft | 422 kts | 2° |
| 2026-05-05 21:30 | -37.19032 | -72.15068 | 35962 ft | 414 kts | 2° |
| 2026-05-05 21:30 | -37.13450 | -72.13393 | 35935 ft | 410 kts | 1° |
| 2026-05-05 21:31 | -37.07895 | -72.11735 | 35925 ft | 412 kts | 2° |
| 2026-05-05 21:31 | -37.02343 | -72.10021 | 35923 ft | 413 kts | 2° |
| 2026-05-05 21:32 | -36.96760 | -72.08332 | 35922 ft | 413 kts | 2° |
| 2026-05-05 21:32 | -36.91165 | -72.06651 | 35916 ft | 413 kts | 2° |
| 2026-05-05 21:33 | -36.85605 | -72.04984 | 35913 ft | 413 kts | 2° |
| 2026-05-05 21:33 | -36.80016 | -72.03299 | 35910 ft | 413 kts | 2° |
| 2026-05-05 21:34 | -36.74432 | -72.01633 | 35909 ft | 413 kts | 2° |
| 2026-05-05 21:34 | -36.68842 | -71.99961 | 35912 ft | 413 kts | 2° |
| 2026-05-05 21:35 | -36.63227 | -71.98337 | 35911 ft | 416 kts | 2° |
| 2026-05-05 21:35 | -36.57587 | -71.96681 | 35910 ft | 416 kts | 2° |
| 2026-05-05 21:36 | -36.51989 | -71.95014 | 35911 ft | 416 kts | 2° |
| 2026-05-05 21:36 | -36.46359 | -71.93342 | 35911 ft | 416 kts | 2° |
| 2026-05-05 21:37 | -36.40732 | -71.91656 | 35911 ft | 416 kts | 2° |
| 2026-05-05 21:37 | -36.35097 | -71.89946 | 35911 ft | 416 kts | 1° |
| 2026-05-05 21:38 | -36.29473 | -71.88291 | 35911 ft | 416 kts | 2° |
| 2026-05-05 21:38 | -36.23839 | -71.86630 | 35911 ft | 416 kts | 1° |
| 2026-05-05 21:39 | -36.18245 | -71.84990 | 35909 ft | 415 kts | 1° |
| 2026-05-05 21:39 | -36.12606 | -71.83336 | 35910 ft | 416 kts | 2° |
| 2026-05-05 21:40 | -36.06984 | -71.81668 | 35910 ft | 416 kts | 1° |
| 2026-05-05 21:40 | -36.01351 | -71.80048 | 35911 ft | 415 kts | 1° |
| 2026-05-05 21:41 | -35.95718 | -71.78395 | 35912 ft | 416 kts | 1° |
| 2026-05-05 21:41 | -35.90117 | -71.76764 | 35910 ft | 416 kts | 1° |
| 2026-05-05 21:42 | -35.84479 | -71.75113 | 35911 ft | 416 kts | 1° |
| 2026-05-05 21:42 | -35.78848 | -71.73455 | 35911 ft | 416 kts | 2° |
| 2026-05-05 21:43 | -35.73219 | -71.71806 | 35919 ft | 415 kts | 1° |
| 2026-05-05 21:43 | -35.67587 | -71.70189 | 35920 ft | 415 kts | 1° |
| 2026-05-05 21:44 | -35.61962 | -71.68555 | 35920 ft | 416 kts | 2° |
| 2026-05-05 21:44 | -35.56331 | -71.66941 | 35921 ft | 416 kts | 1° |
| 2026-05-05 21:45 | -35.50722 | -71.65327 | 35921 ft | 417 kts | 1° |
| 2026-05-05 21:45 | -35.45068 | -71.63699 | 35928 ft | 417 kts | 2° |
| 2026-05-05 21:46 | -35.39427 | -71.62066 | 35937 ft | 417 kts | 2° |
| 2026-05-05 21:46 | -35.33762 | -71.60432 | 35940 ft | 418 kts | 1° |
| 2026-05-05 21:47 | -35.28089 | -71.58799 | 35942 ft | 418 kts | 1° |
| 2026-05-05 21:47 | -35.22418 | -71.57170 | 35943 ft | 418 kts | 1° |
| 2026-05-05 21:48 | -35.16784 | -71.55555 | 35942 ft | 419 kts | 2° |
| 2026-05-05 21:48 | -35.11106 | -71.53927 | 35937 ft | 418 kts | 1° |
| 2026-05-05 21:49 | -35.05444 | -71.52302 | 35946 ft | 418 kts | 1° |
| 2026-05-05 21:49 | -34.99775 | -71.50680 | 35946 ft | 420 kts | 1° |
| 2026-05-05 21:50 | -34.95049 | -71.49323 | 35943 ft | 419 kts | 1° |
| 2026-05-05 21:50 | -34.89366 | -71.47677 | 35944 ft | 419 kts | 1° |
| 2026-05-05 21:51 | -34.83680 | -71.46076 | 35945 ft | 419 kts | 1° |
| 2026-05-05 21:51 | -34.78019 | -71.44475 | 35751 ft | 413 kts | 1° |
| 2026-05-05 21:52 | -34.72443 | -71.42890 | 35041 ft | 408 kts | 1° |
| 2026-05-05 21:52 | -34.69721 | -71.42112 | 34567 ft | 405 kts | 2° |
| 2026-05-05 21:52 | -34.66992 | -71.41320 | 34064 ft | 402 kts | 2° |
| 2026-05-05 21:53 | -34.64285 | -71.40394 | 33565 ft | 408 kts | 8° |
| 2026-05-05 21:53 | -34.61623 | -71.39148 | 33068 ft | 409 kts | 11° |
| 2026-05-05 21:53 | -34.58997 | -71.37838 | 32572 ft | 407 kts | 11° |
| 2026-05-05 21:53 | -34.56383 | -71.36527 | 31958 ft | 406 kts | 11° |
| 2026-05-05 21:54 | -34.53743 | -71.35219 | 31003 ft | 413 kts | 12° |
| 2026-05-05 21:54 | -34.51061 | -71.33901 | 30119 ft | 418 kts | 12° |
| 2026-05-05 21:54 | -34.48358 | -71.32571 | 29458 ft | 417 kts | 12° |
| 2026-05-05 21:54 | -34.45675 | -71.31246 | 28922 ft | 412 kts | 12° |
| 2026-05-05 21:55 | -34.43072 | -71.29962 | 28398 ft | 407 kts | 12° |
| 2026-05-05 21:55 | -34.40457 | -71.28675 | 27805 ft | 404 kts | 12° |
| 2026-05-05 21:55 | -34.37852 | -71.27397 | 27232 ft | 401 kts | 12° |
| 2026-05-05 21:55 | -34.35283 | -71.26136 | 26735 ft | 395 kts | 13° |
| 2026-05-05 21:56 | -34.32744 | -71.24893 | 26143 ft | 393 kts | 13° |
| 2026-05-05 21:56 | -34.30213 | -71.23656 | 25552 ft | 390 kts | 13° |
| 2026-05-05 21:56 | -34.27718 | -71.22432 | 25070 ft | 386 kts | 13° |
| 2026-05-05 21:56 | -34.25243 | -71.21221 | 24513 ft | 382 kts | 13° |
| 2026-05-05 21:57 | -34.22785 | -71.20022 | 23943 ft | 379 kts | 13° |
| 2026-05-05 21:57 | -34.20345 | -71.18825 | 23412 ft | 376 kts | 13° |
| 2026-05-05 21:57 | -34.17965 | -71.17654 | 22894 ft | 372 kts | 13° |
| 2026-05-05 21:57 | -34.15575 | -71.16484 | 22346 ft | 369 kts | 13° |
| 2026-05-05 21:58 | -34.13208 | -71.15334 | 21875 ft | 364 kts | 13° |
| 2026-05-05 21:58 | -34.10875 | -71.14195 | 21363 ft | 361 kts | 14° |
| 2026-05-05 21:58 | -34.08559 | -71.13064 | 20874 ft | 356 kts | 14° |
| 2026-05-05 21:58 | -34.06275 | -71.11953 | 20414 ft | 352 kts | 14° |
| 2026-05-05 21:59 | -34.04011 | -71.10862 | 19939 ft | 349 kts | 14° |
| 2026-05-05 21:59 | -34.01772 | -71.09777 | 19475 ft | 344 kts | 14° |
| 2026-05-05 21:59 | -33.99561 | -71.08705 | 19041 ft | 339 kts | 14° |
| 2026-05-05 21:59 | -33.97388 | -71.07647 | 18649 ft | 334 kts | 15° |
| 2026-05-05 22:00 | -33.95252 | -71.06608 | 18251 ft | 328 kts | 15° |
| 2026-05-05 22:00 | -33.93149 | -71.05590 | 17881 ft | 322 kts | 15° |
| 2026-05-05 22:00 | -33.91089 | -71.04594 | 17516 ft | 316 kts | 15° |
| 2026-05-05 22:00 | -33.89059 | -71.03612 | 17153 ft | 314 kts | 15° |
| 2026-05-05 22:01 | -33.87031 | -71.02632 | 16813 ft | 315 kts | 15° |
| 2026-05-05 22:01 | -33.84999 | -71.01650 | 16469 ft | 314 kts | 16° |
| 2026-05-05 22:01 | -33.83003 | -71.00687 | 16151 ft | 311 kts | 16° |
| 2026-05-05 22:01 | -33.81001 | -70.99721 | 15810 ft | 309 kts | 16° |
| 2026-05-05 22:02 | -33.79011 | -70.98757 | 15504 ft | 309 kts | 16° |
| 2026-05-05 22:02 | -33.77015 | -70.97794 | 15173 ft | 308 kts | 17° |
| 2026-05-05 22:02 | -33.75028 | -70.96839 | 14861 ft | 307 kts | 17° |
| 2026-05-05 22:02 | -33.73052 | -70.95887 | 14547 ft | 306 kts | 17° |
| 2026-05-05 22:03 | -33.71086 | -70.94934 | 14233 ft | 304 kts | 17° |
| 2026-05-05 22:03 | -33.69120 | -70.93982 | 13922 ft | 303 kts | 18° |
| 2026-05-05 22:03 | -33.67171 | -70.93041 | 13617 ft | 301 kts | 18° |
| 2026-05-05 22:03 | -33.65230 | -70.92110 | 13312 ft | 300 kts | 18° |
| 2026-05-05 22:04 | -33.63300 | -70.91181 | 13013 ft | 298 kts | 18° |
| 2026-05-05 22:04 | -33.61385 | -70.90258 | 12742 ft | 296 kts | 18° |
| 2026-05-05 22:04 | -33.59485 | -70.89347 | 12465 ft | 294 kts | 18° |
| 2026-05-05 22:04 | -33.57586 | -70.88431 | 12169 ft | 294 kts | 19° |
| 2026-05-05 22:05 | -33.55770 | -70.87361 | 11865 ft | 295 kts | 27° |
| 2026-05-05 22:05 | -33.54023 | -70.86086 | 11567 ft | 294 kts | 29° |
| 2026-05-05 22:05 | -33.52294 | -70.84801 | 11267 ft | 293 kts | 29° |
| 2026-05-05 22:05 | -33.50567 | -70.83520 | 10964 ft | 291 kts | 29° |
| 2026-05-05 22:06 | -33.48842 | -70.82244 | 10661 ft | 290 kts | 29° |
| 2026-05-05 22:06 | -33.47128 | -70.80978 | 10392 ft | 288 kts | 29° |
| 2026-05-05 22:06 | -33.45437 | -70.79726 | 10187 ft | 283 kts | 29° |
| 2026-05-05 22:06 | -33.43765 | -70.78501 | 10008 ft | 284 kts | 29° |
| 2026-05-05 22:07 | -33.42048 | -70.77247 | 9884 ft | 287 kts | 29° |
| 2026-05-05 22:07 | -33.40362 | -70.76013 | 9597 ft | 281 kts | 30° |
| 2026-05-05 22:07 | -33.38705 | -70.74795 | 9274 ft | 278 kts | 30° |
| 2026-05-05 22:07 | -33.37050 | -70.73580 | 8956 ft | 278 kts | 30° |
| 2026-05-05 22:08 | -33.35440 | -70.72397 | 8711 ft | 271 kts | 30° |
| 2026-05-05 22:08 | -33.33851 | -70.71231 | 8498 ft | 264 kts | 30° |
| 2026-05-05 22:08 | -33.32294 | -70.70094 | 8251 ft | 260 kts | 30° |
| 2026-05-05 22:08 | -33.30667 | -70.69201 | 8002 ft | 255 kts | 9° |
| 2026-05-05 22:09 | -33.28906 | -70.69183 | 7661 ft | 254 kts | 353° |
| 2026-05-05 22:09 | -33.27154 | -70.69432 | 7219 ft | 253 kts | 352° |
| 2026-05-05 22:09 | -33.25435 | -70.69678 | 7052 ft | 244 kts | 353° |
| 2026-05-05 22:09 | -33.23785 | -70.69903 | 6924 ft | 234 kts | 353° |
| 2026-05-05 22:10 | -33.22187 | -70.70115 | 6753 ft | 229 kts | 353° |
| 2026-05-05 22:10 | -33.20552 | -70.70322 | 6256 ft | 241 kts | 353° |
| 2026-05-05 22:10 | -33.18894 | -70.70527 | 6049 ft | 239 kts | 353° |
| 2026-05-05 22:10 | -33.17269 | -70.70729 | 5820 ft | 237 kts | 353° |
| 2026-05-05 22:11 | -33.15662 | -70.71092 | 5447 ft | 235 kts | 336° |
| 2026-05-05 22:11 | -33.14314 | -70.72223 | 5104 ft | 235 kts | 309° |
| 2026-05-05 22:11 | -33.13552 | -70.73856 | 5003 ft | 219 kts | 285° |
| 2026-05-05 22:11 | -33.13413 | -70.75597 | 4990 ft | 213 kts | 262° |
| 2026-05-05 22:12 | -33.13859 | -70.77275 | 5004 ft | 213 kts | 240° |
| 2026-05-05 22:12 | -33.14809 | -70.78620 | 5012 ft | 214 kts | 218° |
| 2026-05-05 22:12 | -33.16101 | -70.79548 | 5018 ft | 221 kts | 208° |
| 2026-05-05 22:12 | -33.17455 | -70.80359 | 5037 ft | 206 kts | 208° |
| 2026-05-05 22:13 | -33.18668 | -70.81085 | 5042 ft | 186 kts | 205° |
| 2026-05-05 22:13 | -33.19877 | -70.81369 | 5004 ft | 176 kts | 179° |
| 2026-05-05 22:13 | -33.21101 | -70.81272 | 5010 ft | 176 kts | 178° |
| 2026-05-05 22:13 | -33.22325 | -70.81183 | 4978 ft | 176 kts | 178° |
| 2026-05-05 22:14 | -33.23529 | -70.81101 | 4734 ft | 174 kts | 179° |
| 2026-05-05 22:14 | -33.24709 | -70.81035 | 4399 ft | 172 kts | 179° |
| 2026-05-05 22:14 | -33.25942 | -70.80969 | 4021 ft | 171 kts | 179° |
| 2026-05-05 22:14 | -33.27110 | -70.80907 | 3652 ft | 169 kts | 179° |
| 2026-05-05 22:15 | -33.28282 | -70.80845 | 3308 ft | 169 kts | 179° |
| 2026-05-05 22:15 | -33.29425 | -70.80784 | 3103 ft | 161 kts | 178° |
| 2026-05-05 22:15 | -33.30533 | -70.80725 | 2895 ft | 157 kts | 180° |
| 2026-05-05 22:15 | -33.31586 | -70.80669 | 2694 ft | 146 kts | 179° |
| 2026-05-05 22:16 | -33.32586 | -70.80616 | 2499 ft | 143 kts | 178° |
| 2026-05-05 22:16 | -33.33580 | -70.80563 | 2311 ft | 143 kts | 178° |
| 2026-05-05 22:16 | -33.34573 | -70.80510 | 2119 ft | 143 kts | 178° |
| 2026-05-05 22:16 | -33.35585 | -70.80455 | 1918 ft | 142 kts | 177° |
| 2026-05-05 22:17 | -33.36570 | -70.80403 | 1728 ft | 143 kts | 178° |
| 2026-05-05 22:17 | -33.37566 | -70.80354 | 1586 ft | 137 kts | 177° |
| 2026-05-05 22:17 | -33.38381 | -70.80310 | 1578 ft | 90 kts | 177° |
| 2026-05-05 22:17 | -33.38814 | -70.80288 | 1580 ft | 50 kts | 178° |
| 2026-05-05 22:18 | -33.39138 | -70.80268 | 1579 ft | 37 kts | 175° |
| 2026-05-05 22:18 | -33.39310 | -70.80216 | 1577 ft | 6 kts | 154° |
| 2026-05-05 22:18 | -33.39352 | -70.80185 | 1576 ft | 8 kts | 146° |
| 2026-05-05 22:18 | -33.39401 | -70.80146 | 1574 ft | 9 kts | 147° |
| 2026-05-05 22:19 | -33.39458 | -70.80102 | 1572 ft | 10 kts | 148° |
| 2026-05-05 22:19 | -33.39519 | -70.80057 | 1571 ft | 11 kts | 149° |
| 2026-05-05 22:19 | -33.39596 | -70.80040 | 1571 ft | 12 kts | 178° |
| 2026-05-05 22:19 | -33.39682 | -70.80035 | 1571 ft | 13 kts | 176° |
| 2026-05-05 22:20 | -33.39776 | -70.80030 | 1572 ft | 14 kts | 177° |
| 2026-05-05 22:20 | -33.39845 | -70.80000 | 1571 ft | 12 kts | 99° |
| 2026-05-05 22:20 | -33.39845 | -70.79925 | 1571 ft | 5 kts | 88° |
| 2026-05-05 22:20 | -33.39836 | -70.79879 | 1570 ft | 6 kts | 56° |
| 2026-05-05 22:21 | -33.39809 | -70.79832 | 1570 ft | 7 kts | 49° |
| 2026-05-05 22:21 | -33.39763 | -70.79826 | 1570 ft | 7 kts | 357° |
| 2026-05-05 22:21 | -33.39749 | -70.79826 | 1570 ft | 0 kts | 357° |
| 2026-05-05 22:21 | -33.39746 | -70.79827 | 1570 ft | 0 kts | 357° |